Quick Links (Output Below):   Max & Min Temps   /   Climate Reports   /   Zone Forecasts
River Forecasts   /   Forestry Forecasts   /   Aviation Forecasts   /   Radars   /   Features

Terminal Aerodrome Forecast (Hot Springs)

Pick a Site:
Arkadelphia | El Dorado | Fayetteville | Fort Smith | Harrison | Highfill | Hot Springs | Jonesboro
Little Rock | Monticello | Mountain Home | Pine Bluff | Texarkana
 Forecast 

KHOT 180540Z 1806/1906 VRB03KT P6SM VCSH BKN100 BKN250
     FM181000 04003KT P6SM BKN100
     FM181400 07007KT P6SM SCT100
     FM181800 06009KT P6SM SCT050 SCT100
     FM190000 04002KT P6SM SCT250=


 Latest METARs (Observations) 
How to Decode METARs
10Z KHOT 180953Z AUTO 00000KT 9SM OVC100 12/11 A3021 RMK AO2
         RAB0857E08 SLP227 P0000 T01170106
         
09Z KHOT 180853Z AUTO 00000KT 9SM OVC095 12/11 A3022 RMK AO2 RAB13E36
         SLP229 P0000 60001 T01220106 53002
         
08Z KHOT 180753Z AUTO 00000KT 10SM FEW080 OVC095 13/10 A3021 RMK AO2
         RAB26E51 SLP228 P0001 T01280100
         
07Z KHOT 180653Z AUTO 00000KT 10SM OVC110 13/08 A3020 RMK AO2 SLP224
         T01330083
         
06Z KHOT 180553Z AUTO 30003KT 10SM BKN110 13/08 A3021 RMK AO2 SLP227
         T01330078 10200 20133 402170033 55003
         
05Z KHOT 180453Z AUTO 10003KT 10SM BKN110 15/07 A3019 RMK AO2 SLP221
         T01500072
         
04Z KHOT 180353Z AUTO 08003KT 10SM OVC100 14/08 A3022 RMK AO2 SLP229
         T01390078
         
03Z KHOT 180253Z AUTO 09003KT 10SM FEW110 15/06 A3022 RMK AO2 SLP232
         T01500061 53019
         
02Z KHOT 180153Z AUTO 10004KT 10SM SCT120 17/04 A3021 RMK AO2 SLP227
         T01720044
         
01Z KHOT 180053Z AUTO 11003KT 10SM OVC110 19/03 A3017 RMK AO2 SLP214
         T01890033
         
***** Today's Observations (Above) *****


Back to Main Page
http://www.srh.noaa.gov/lzk/qfcst.php

USA.gov is the U.S. government's official web portal to all federal, state and local government web resources and services.